sensor_id;sensor_type;location;lat;lon;timestamp;temperature;humidity
36800;DHT22;22752;51.960;5.886;2023-06-04T00:00:47;14.10;92.50
36800;DHT22;22752;51.960;5.886;2023-06-04T00:03:13;14.10;92.60
36800;DHT22;22752;51.960;5.886;2023-06-04T00:05:38;14.00;92.70
36800;DHT22;22752;51.960;5.886;2023-06-04T00:08:04;13.90;92.80
36800;DHT22;22752;51.960;5.886;2023-06-04T00:10:30;13.90;92.90
36800;DHT22;22752;51.960;5.886;2023-06-04T00:12:56;13.90;92.90
36800;DHT22;22752;51.960;5.886;2023-06-04T00:15:22;13.90;92.90
36800;DHT22;22752;51.960;5.886;2023-06-04T00:17:47;13.90;93.00
36800;DHT22;22752;51.960;5.886;2023-06-04T00:20:13;13.80;93.00
36800;DHT22;22752;51.960;5.886;2023-06-04T00:22:39;13.80;93.40
36800;DHT22;22752;51.960;5.886;2023-06-04T00:25:08;13.80;93.20
36800;DHT22;22752;51.960;5.886;2023-06-04T00:27:34;13.70;93.20
36800;DHT22;22752;51.960;5.886;2023-06-04T00:29:59;13.60;93.30
36800;DHT22;22752;51.960;5.886;2023-06-04T00:32:25;13.60;93.30
36800;DHT22;22752;51.960;5.886;2023-06-04T00:34:52;13.60;93.30
36800;DHT22;22752;51.960;5.886;2023-06-04T00:37:18;13.60;93.40
36800;DHT22;22752;51.960;5.886;2023-06-04T00:39:43;13.50;93.40
36800;DHT22;22752;51.960;5.886;2023-06-04T00:42:09;13.50;93.50
36800;DHT22;22752;51.960;5.886;2023-06-04T00:44:34;13.40;93.50
36800;DHT22;22752;51.960;5.886;2023-06-04T00:47:01;13.40;93.60
36800;DHT22;22752;51.960;5.886;2023-06-04T00:49:27;13.30;93.60
36800;DHT22;22752;51.960;5.886;2023-06-04T00:51:53;13.40;93.60
36800;DHT22;22752;51.960;5.886;2023-06-04T00:54:20;13.30;93.60
36800;DHT22;22752;51.960;5.886;2023-06-04T00:56:46;13.30;93.70
36800;DHT22;22752;51.960;5.886;2023-06-04T00:59:12;13.30;93.70
36800;DHT22;22752;51.960;5.886;2023-06-04T01:01:51;13.20;93.80
36800;DHT22;22752;51.960;5.886;2023-06-04T01:04:24;13.20;93.70
36800;DHT22;22752;51.960;5.886;2023-06-04T01:06:53;13.20;93.80
36800;DHT22;22752;51.960;5.886;2023-06-04T01:09:22;13.10;93.80
36800;DHT22;22752;51.960;5.886;2023-06-04T01:11:48;13.10;93.80
36800;DHT22;22752;51.960;5.886;2023-06-04T01:14:13;13.10;93.80
36800;DHT22;22752;51.960;5.886;2023-06-04T01:16:52;13.10;93.80
36800;DHT22;22752;51.960;5.886;2023-06-04T01:22:02;13.10;93.80
36800;DHT22;22752;51.960;5.886;2023-06-04T01:24:29;13.10;93.70
36800;DHT22;22752;51.960;5.886;2023-06-04T01:26:58;13.10;93.70
36800;DHT22;22752;51.960;5.886;2023-06-04T01:29:26;13.10;93.70
36800;DHT22;22752;51.960;5.886;2023-06-04T01:31:55;13.10;93.70
36800;DHT22;22752;51.960;5.886;2023-06-04T01:34:22;13.10;93.60
36800;DHT22;22752;51.960;5.886;2023-06-04T01:36:48;13.10;93.60
36800;DHT22;22752;51.960;5.886;2023-06-04T01:39:14;13.00;93.70
36800;DHT22;22752;51.960;5.886;2023-06-04T01:41:39;13.00;93.60
36800;DHT22;22752;51.960;5.886;2023-06-04T01:44:05;13.00;93.50
36800;DHT22;22752;51.960;5.886;2023-06-04T01:46:30;13.10;93.50
36800;DHT22;22752;51.960;5.886;2023-06-04T01:48:56;13.10;93.50
36800;DHT22;22752;51.960;5.886;2023-06-04T01:51:22;13.00;93.60
36800;DHT22;22752;51.960;5.886;2023-06-04T01:53:47;13.00;93.60
36800;DHT22;22752;51.960;5.886;2023-06-04T01:56:13;12.90;93.60
36800;DHT22;22752;51.960;5.886;2023-06-04T01:58:39;12.90;93.60
36800;DHT22;22752;51.960;5.886;2023-06-04T02:01:05;12.90;93.70
36800;DHT22;22752;51.960;5.886;2023-06-04T02:03:32;12.90;93.70
36800;DHT22;22752;51.960;5.886;2023-06-04T02:06:03;12.90;93.70
36800;DHT22;22752;51.960;5.886;2023-06-04T02:08:30;12.90;93.80
36800;DHT22;22752;51.960;5.886;2023-06-04T02:10:56;12.80;93.80
36800;DHT22;22752;51.960;5.886;2023-06-04T02:13:21;12.80;93.90
36800;DHT22;22752;51.960;5.886;2023-06-04T02:15:47;12.80;94.20
36800;DHT22;22752;51.960;5.886;2023-06-04T02:18:18;12.70;94.00
36800;DHT22;22752;51.960;5.886;2023-06-04T02:20:47;12.70;94.10
36800;DHT22;22752;51.960;5.886;2023-06-04T02:23:13;12.60;94.20
36800;DHT22;22752;51.960;5.886;2023-06-04T02:25:39;12.60;94.30
36800;DHT22;22752;51.960;5.886;2023-06-04T02:28:07;12.60;94.30
36800;DHT22;22752;51.960;5.886;2023-06-04T02:30:32;12.60;94.40
36800;DHT22;22752;51.960;5.886;2023-06-04T02:32:58;12.60;94.40
36800;DHT22;22752;51.960;5.886;2023-06-04T02:35:27;12.60;94.40
36800;DHT22;22752;51.960;5.886;2023-06-04T02:37:53;12.60;94.50
36800;DHT22;22752;51.960;5.886;2023-06-04T02:40:19;12.60;94.50
36800;DHT22;22752;51.960;5.886;2023-06-04T02:42:44;12.60;94.60
36800;DHT22;22752;51.960;5.886;2023-06-04T02:45:10;12.60;94.50
36800;DHT22;22752;51.960;5.886;2023-06-04T02:47:36;12.60;94.60
36800;DHT22;22752;51.960;5.886;2023-06-04T02:50:02;12.60;94.60
36800;DHT22;22752;51.960;5.886;2023-06-04T02:52:28;12.50;94.70
36800;DHT22;22752;51.960;5.886;2023-06-04T02:54:56;12.50;94.80
36800;DHT22;22752;51.960;5.886;2023-06-04T02:57:21;12.40;95.20
36800;DHT22;22752;51.960;5.886;2023-06-04T02:59:47;12.40;95.00
36800;DHT22;22752;51.960;5.886;2023-06-04T03:02:13;12.40;95.10
36800;DHT22;22752;51.960;5.886;2023-06-04T03:04:41;12.30;95.30
36800;DHT22;22752;51.960;5.886;2023-06-04T03:07:08;12.30;95.40
36800;DHT22;22752;51.960;5.886;2023-06-04T03:09:37;12.30;95.40
36800;DHT22;22752;51.960;5.886;2023-06-04T03:12:03;12.30;95.40
36800;DHT22;22752;51.960;5.886;2023-06-04T03:14:30;12.30;95.40
36800;DHT22;22752;51.960;5.886;2023-06-04T03:16:59;12.30;95.50
36800;DHT22;22752;51.960;5.886;2023-06-04T03:19:27;12.30;95.60
36800;DHT22;22752;51.960;5.886;2023-06-04T03:21:53;12.20;95.70
36800;DHT22;22752;51.960;5.886;2023-06-04T03:24:19;12.20;95.80
36800;DHT22;22752;51.960;5.886;2023-06-04T03:26:45;12.20;95.90
36800;DHT22;22752;51.960;5.886;2023-06-04T03:29:12;12.20;95.90
36800;DHT22;22752;51.960;5.886;2023-06-04T03:31:37;12.20;96.00
36800;DHT22;22752;51.960;5.886;2023-06-04T03:34:03;12.10;96.10
36800;DHT22;22752;51.960;5.886;2023-06-04T03:36:30;12.10;96.30
36800;DHT22;22752;51.960;5.886;2023-06-04T03:38:58;12.10;96.40
36800;DHT22;22752;51.960;5.886;2023-06-04T03:41:23;12.10;96.40
36800;DHT22;22752;51.960;5.886;2023-06-04T03:43:51;12.10;96.50
36800;DHT22;22752;51.960;5.886;2023-06-04T03:46:17;12.10;96.50
36800;DHT22;22752;51.960;5.886;2023-06-04T03:48:43;12.10;96.60
36800;DHT22;22752;51.960;5.886;2023-06-04T03:51:11;12.10;96.70
36800;DHT22;22752;51.960;5.886;2023-06-04T03:53:36;12.00;96.80
36800;DHT22;22752;51.960;5.886;2023-06-04T03:56:02;12.00;96.80
36800;DHT22;22752;51.960;5.886;2023-06-04T03:58:27;12.00;97.00
36800;DHT22;22752;51.960;5.886;2023-06-04T04:00:54;12.00;97.10
36800;DHT22;22752;51.960;5.886;2023-06-04T04:03:20;12.00;97.20
36800;DHT22;22752;51.960;5.886;2023-06-04T04:05:47;12.10;97.20
36800;DHT22;22752;51.960;5.886;2023-06-04T04:08:12;12.10;97.20
36800;DHT22;22752;51.960;5.886;2023-06-04T04:10:41;12.20;97.30
36800;DHT22;22752;51.960;5.886;2023-06-04T04:13:07;12.20;97.30
36800;DHT22;22752;51.960;5.886;2023-06-04T04:15:32;12.50;97.10
36800;DHT22;22752;51.960;5.886;2023-06-04T04:17:59;12.80;96.80
36800;DHT22;22752;51.960;5.886;2023-06-04T04:20:25;12.90;96.50
36800;DHT22;22752;51.960;5.886;2023-06-04T04:22:51;13.00;96.60
36800;DHT22;22752;51.960;5.886;2023-06-04T04:25:16;13.20;96.50
36800;DHT22;22752;51.960;5.886;2023-06-04T04:27:42;13.40;95.90
36800;DHT22;22752;51.960;5.886;2023-06-04T04:30:08;13.60;95.80
36800;DHT22;22752;51.960;5.886;2023-06-04T04:32:34;13.90;95.60
36800;DHT22;22752;51.960;5.886;2023-06-04T04:35:04;14.20;95.30
36800;DHT22;22752;51.960;5.886;2023-06-04T04:37:30;14.60;94.80
36800;DHT22;22752;51.960;5.886;2023-06-04T04:39:55;14.90;94.30
36800;DHT22;22752;51.960;5.886;2023-06-04T04:42:21;15.20;94.00
36800;DHT22;22752;51.960;5.886;2023-06-04T04:44:47;15.50;93.60
36800;DHT22;22752;51.960;5.886;2023-06-04T04:47:16;15.70;93.10
36800;DHT22;22752;51.960;5.886;2023-06-04T04:49:42;16.00;93.10
36800;DHT22;22752;51.960;5.886;2023-06-04T04:52:08;16.30;92.60
36800;DHT22;22752;51.960;5.886;2023-06-04T04:54:33;16.50;92.30
36800;DHT22;22752;51.960;5.886;2023-06-04T04:56:59;16.70;92.10
36800;DHT22;22752;51.960;5.886;2023-06-04T04:59:25;16.70;91.80
36800;DHT22;22752;51.960;5.886;2023-06-04T05:01:52;16.90;91.60
36800;DHT22;22752;51.960;5.886;2023-06-04T05:04:17;16.90;91.50
36800;DHT22;22752;51.960;5.886;2023-06-04T05:06:43;17.00;91.50
36800;DHT22;22752;51.960;5.886;2023-06-04T05:09:09;17.20;91.60
36800;DHT22;22752;51.960;5.886;2023-06-04T05:11:34;17.40;91.20
36800;DHT22;22752;51.960;5.886;2023-06-04T05:14:00;17.50;91.00
36800;DHT22;22752;51.960;5.886;2023-06-04T05:16:25;17.70;90.90
36800;DHT22;22752;51.960;5.886;2023-06-04T05:18:53;17.70;90.60
36800;DHT22;22752;51.960;5.886;2023-06-04T05:21:22;17.80;90.50
36800;DHT22;22752;51.960;5.886;2023-06-04T05:23:47;18.10;90.40
36800;DHT22;22752;51.960;5.886;2023-06-04T05:26:13;18.30;90.30
36800;DHT22;22752;51.960;5.886;2023-06-04T05:28:40;18.50;90.00
36800;DHT22;22752;51.960;5.886;2023-06-04T05:31:08;18.60;89.70
36800;DHT22;22752;51.960;5.886;2023-06-04T05:33:35;18.80;89.50
36800;DHT22;22752;51.960;5.886;2023-06-04T05:36:00;19.00;88.70
36800;DHT22;22752;51.960;5.886;2023-06-04T05:38:26;19.00;88.10
36800;DHT22;22752;51.960;5.886;2023-06-04T05:40:55;19.00;88.10
36800;DHT22;22752;51.960;5.886;2023-06-04T05:43:21;19.10;87.60
36800;DHT22;22752;51.960;5.886;2023-06-04T05:45:47;19.30;88.10
36800;DHT22;22752;51.960;5.886;2023-06-04T05:48:13;19.50;87.10
36800;DHT22;22752;51.960;5.886;2023-06-04T05:50:39;19.70;86.70
36800;DHT22;22752;51.960;5.886;2023-06-04T05:53:05;19.80;86.40
36800;DHT22;22752;51.960;5.886;2023-06-04T05:55:30;19.90;85.50
36800;DHT22;22752;51.960;5.886;2023-06-04T05:57:56;19.90;85.30
36800;DHT22;22752;51.960;5.886;2023-06-04T06:00:22;20.00;85.00
36800;DHT22;22752;51.960;5.886;2023-06-04T06:02:49;20.10;85.50
36800;DHT22;22752;51.960;5.886;2023-06-04T06:05:16;20.20;84.30
36800;DHT22;22752;51.960;5.886;2023-06-04T06:07:42;20.20;84.60
36800;DHT22;22752;51.960;5.886;2023-06-04T06:10:08;20.30;84.10
36800;DHT22;22752;51.960;5.886;2023-06-04T06:12:34;20.50;83.50
36800;DHT22;22752;51.960;5.886;2023-06-04T06:15:00;20.70;83.30
36800;DHT22;22752;51.960;5.886;2023-06-04T06:17:26;20.90;83.90
36800;DHT22;22752;51.960;5.886;2023-06-04T06:19:52;21.10;81.90
36800;DHT22;22752;51.960;5.886;2023-06-04T06:22:18;21.20;82.60
36800;DHT22;22752;51.960;5.886;2023-06-04T06:24:44;21.30;81.30
36800;DHT22;22752;51.960;5.886;2023-06-04T06:27:10;21.50;81.60
36800;DHT22;22752;51.960;5.886;2023-06-04T06:29:36;21.60;81.30
36800;DHT22;22752;51.960;5.886;2023-06-04T06:32:05;21.70;80.40
36800;DHT22;22752;51.960;5.886;2023-06-04T06:34:30;22.10;81.10
36800;DHT22;22752;51.960;5.886;2023-06-04T06:36:56;22.50;79.50
36800;DHT22;22752;51.960;5.886;2023-06-04T06:39:22;22.60;78.50
36800;DHT22;22752;51.960;5.886;2023-06-04T06:41:48;22.70;78.00
36800;DHT22;22752;51.960;5.886;2023-06-04T06:44:13;22.70;77.30
36800;DHT22;22752;51.960;5.886;2023-06-04T06:46:39;22.80;78.50
36800;DHT22;22752;51.960;5.886;2023-06-04T06:49:05;23.20;78.60
36800;DHT22;22752;51.960;5.886;2023-06-04T06:51:30;23.40;77.00
36800;DHT22;22752;51.960;5.886;2023-06-04T06:53:56;23.50;75.10
36800;DHT22;22752;51.960;5.886;2023-06-04T06:56:22;23.40;75.40
36800;DHT22;22752;51.960;5.886;2023-06-04T06:58:47;23.50;75.00
36800;DHT22;22752;51.960;5.886;2023-06-04T07:01:13;23.50;75.50
36800;DHT22;22752;51.960;5.886;2023-06-04T07:03:39;23.60;74.40
36800;DHT22;22752;51.960;5.886;2023-06-04T07:06:08;23.70;74.70
36800;DHT22;22752;51.960;5.886;2023-06-04T07:08:33;24.00;76.20
36800;DHT22;22752;51.960;5.886;2023-06-04T07:11:01;24.30;75.60
36800;DHT22;22752;51.960;5.886;2023-06-04T07:13:28;24.50;74.50
36800;DHT22;22752;51.960;5.886;2023-06-04T07:15:53;24.50;74.20
36800;DHT22;22752;51.960;5.886;2023-06-04T07:18:19;24.60;74.70
36800;DHT22;22752;51.960;5.886;2023-06-04T07:20:45;24.80;73.40
36800;DHT22;22752;51.960;5.886;2023-06-04T07:23:10;24.90;74.10
36800;DHT22;22752;51.960;5.886;2023-06-04T07:25:36;24.90;74.10
36800;DHT22;22752;51.960;5.886;2023-06-04T07:28:02;24.90;72.40
36800;DHT22;22752;51.960;5.886;2023-06-04T07:30:29;24.90;73.00
36800;DHT22;22752;51.960;5.886;2023-06-04T07:32:57;24.90;72.30
36800;DHT22;22752;51.960;5.886;2023-06-04T07:35:23;24.90;73.20
36800;DHT22;22752;51.960;5.886;2023-06-04T07:37:49;25.00;73.10
36800;DHT22;22752;51.960;5.886;2023-06-04T07:40:16;25.10;72.40
36800;DHT22;22752;51.960;5.886;2023-06-04T07:42:42;25.30;72.90
36800;DHT22;22752;51.960;5.886;2023-06-04T07:45:09;25.50;71.40
36800;DHT22;22752;51.960;5.886;2023-06-04T07:47:38;25.50;70.90
36800;DHT22;22752;51.960;5.886;2023-06-04T07:50:05;25.30;71.60
36800;DHT22;22752;51.960;5.886;2023-06-04T07:52:31;25.20;71.90
36800;DHT22;22752;51.960;5.886;2023-06-04T07:54:57;25.40;72.00
36800;DHT22;22752;51.960;5.886;2023-06-04T07:57:23;25.50;70.20
36800;DHT22;22752;51.960;5.886;2023-06-04T07:59:49;25.30;70.20
36800;DHT22;22752;51.960;5.886;2023-06-04T08:02:15;25.20;69.90
36800;DHT22;22752;51.960;5.886;2023-06-04T08:04:41;25.10;69.50
36800;DHT22;22752;51.960;5.886;2023-06-04T08:07:06;24.90;69.20
36800;DHT22;22752;51.960;5.886;2023-06-04T08:09:32;24.90;69.60
36800;DHT22;22752;51.960;5.886;2023-06-04T08:11:58;25.20;71.00
36800;DHT22;22752;51.960;5.886;2023-06-04T08:14:23;25.40;68.20
36800;DHT22;22752;51.960;5.886;2023-06-04T08:16:55;25.80;67.60
36800;DHT22;22752;51.960;5.886;2023-06-04T08:19:20;26.00;67.80
36800;DHT22;22752;51.960;5.886;2023-06-04T08:21:46;26.00;68.70
36800;DHT22;22752;51.960;5.886;2023-06-04T08:24:12;26.20;68.80
36800;DHT22;22752;51.960;5.886;2023-06-04T08:26:38;26.20;66.60
36800;DHT22;22752;51.960;5.886;2023-06-04T08:29:05;26.20;67.50
36800;DHT22;22752;51.960;5.886;2023-06-04T08:31:31;26.40;65.40
36800;DHT22;22752;51.960;5.886;2023-06-04T08:33:57;26.20;63.60
36800;DHT22;22752;51.960;5.886;2023-06-04T08:36:23;26.00;65.20
36800;DHT22;22752;51.960;5.886;2023-06-04T08:38:48;26.00;65.50
36800;DHT22;22752;51.960;5.886;2023-06-04T08:44:06;26.10;65.30
36800;DHT22;22752;51.960;5.886;2023-06-04T08:46:40;26.10;64.70
36800;DHT22;22752;51.960;5.886;2023-06-04T08:49:06;26.00;64.70
36800;DHT22;22752;51.960;5.886;2023-06-04T08:51:37;25.90;65.90
36800;DHT22;22752;51.960;5.886;2023-06-04T08:54:07;26.00;63.50
36800;DHT22;22752;51.960;5.886;2023-06-04T08:56:36;26.00;63.90
36800;DHT22;22752;51.960;5.886;2023-06-04T08:59:03;26.00;63.00
36800;DHT22;22752;51.960;5.886;2023-06-04T09:01:31;25.90;62.20
36800;DHT22;22752;51.960;5.886;2023-06-04T09:03:58;25.80;62.10
36800;DHT22;22752;51.960;5.886;2023-06-04T09:06:27;25.60;64.70
36800;DHT22;22752;51.960;5.886;2023-06-04T09:08:56;25.40;62.80
36800;DHT22;22752;51.960;5.886;2023-06-04T09:11:35;25.10;63.40
36800;DHT22;22752;51.960;5.886;2023-06-04T09:14:03;24.60;64.60
36800;DHT22;22752;51.960;5.886;2023-06-04T09:16:29;24.30;65.20
36800;DHT22;22752;51.960;5.886;2023-06-04T09:19:02;24.20;64.90
36800;DHT22;22752;51.960;5.886;2023-06-04T09:21:27;24.00;65.50
36800;DHT22;22752;51.960;5.886;2023-06-04T09:23:53;24.00;65.60
36800;DHT22;22752;51.960;5.886;2023-06-04T09:26:19;23.80;63.80
36800;DHT22;22752;51.960;5.886;2023-06-04T09:28:47;23.70;63.60
36800;DHT22;22752;51.960;5.886;2023-06-04T09:31:16;23.60;63.50
36800;DHT22;22752;51.960;5.886;2023-06-04T09:33:46;23.50;63.60
36800;DHT22;22752;51.960;5.886;2023-06-04T09:36:12;23.50;64.00
36800;DHT22;22752;51.960;5.886;2023-06-04T09:38:39;23.40;64.90
36800;DHT22;22752;51.960;5.886;2023-06-04T09:41:13;23.30;64.60
36800;DHT22;22752;51.960;5.886;2023-06-04T09:43:39;23.30;63.70
36800;DHT22;22752;51.960;5.886;2023-06-04T09:46:16;23.40;63.70
36800;DHT22;22752;51.960;5.886;2023-06-04T09:48:43;23.40;64.40
36800;DHT22;22752;51.960;5.886;2023-06-04T09:51:13;23.30;64.60
36800;DHT22;22752;51.960;5.886;2023-06-04T09:53:41;23.30;63.90
36800;DHT22;22752;51.960;5.886;2023-06-04T09:56:07;23.30;64.60
36800;DHT22;22752;51.960;5.886;2023-06-04T09:58:34;23.40;64.70
36800;DHT22;22752;51.960;5.886;2023-06-04T10:01:04;23.40;65.90
36800;DHT22;22752;51.960;5.886;2023-06-04T10:03:34;23.30;62.70
36800;DHT22;22752;51.960;5.886;2023-06-04T10:06:05;23.10;63.00
36800;DHT22;22752;51.960;5.886;2023-06-04T10:08:32;23.00;62.90
36800;DHT22;22752;51.960;5.886;2023-06-04T10:11:00;23.00;63.20
36800;DHT22;22752;51.960;5.886;2023-06-04T10:13:41;23.00;64.00
36800;DHT22;22752;51.960;5.886;2023-06-04T10:16:11;23.00;65.00
36800;DHT22;22752;51.960;5.886;2023-06-04T10:18:37;23.00;64.20
36800;DHT22;22752;51.960;5.886;2023-06-04T10:21:03;23.00;66.00
36800;DHT22;22752;51.960;5.886;2023-06-04T10:23:29;22.90;65.80
36800;DHT22;22752;51.960;5.886;2023-06-04T10:25:55;22.90;67.60
36800;DHT22;22752;51.960;5.886;2023-06-04T10:28:23;22.90;67.90
36800;DHT22;22752;51.960;5.886;2023-06-04T10:30:49;23.00;66.40
36800;DHT22;22752;51.960;5.886;2023-06-04T10:33:19;23.10;65.90
36800;DHT22;22752;51.960;5.886;2023-06-04T10:35:45;23.00;64.50
36800;DHT22;22752;51.960;5.886;2023-06-04T10:38:12;23.00;64.30
36800;DHT22;22752;51.960;5.886;2023-06-04T10:40:42;22.90;66.40
36800;DHT22;22752;51.960;5.886;2023-06-04T10:43:10;23.00;65.50
36800;DHT22;22752;51.960;5.886;2023-06-04T10:45:36;23.00;65.30
36800;DHT22;22752;51.960;5.886;2023-06-04T10:48:04;23.20;65.30
36800;DHT22;22752;51.960;5.886;2023-06-04T10:50:31;23.30;65.10
36800;DHT22;22752;51.960;5.886;2023-06-04T10:52:58;23.30;66.30
36800;DHT22;22752;51.960;5.886;2023-06-04T10:55:24;23.30;66.30
36800;DHT22;22752;51.960;5.886;2023-06-04T10:58:00;23.30;65.00
36800;DHT22;22752;51.960;5.886;2023-06-04T11:00:41;23.40;66.10
36800;DHT22;22752;51.960;5.886;2023-06-04T11:03:09;23.40;65.80
36800;DHT22;22752;51.960;5.886;2023-06-04T11:05:39;23.50;66.00
36800;DHT22;22752;51.960;5.886;2023-06-04T11:08:05;23.50;65.20
36800;DHT22;22752;51.960;5.886;2023-06-04T11:10:37;23.30;64.00
36800;DHT22;22752;51.960;5.886;2023-06-04T11:13:04;23.20;64.60
36800;DHT22;22752;51.960;5.886;2023-06-04T11:15:45;23.10;66.00
36800;DHT22;22752;51.960;5.886;2023-06-04T11:18:22;23.10;64.50
36800;DHT22;22752;51.960;5.886;2023-06-04T11:20:59;23.10;65.50
36800;DHT22;22752;51.960;5.886;2023-06-04T11:23:24;23.10;65.00
36800;DHT22;22752;51.960;5.886;2023-06-04T11:25:52;23.10;64.80
36800;DHT22;22752;51.960;5.886;2023-06-04T11:28:19;23.00;65.40
36800;DHT22;22752;51.960;5.886;2023-06-04T11:31:02;23.00;64.70
36800;DHT22;22752;51.960;5.886;2023-06-04T11:33:29;23.10;66.00
36800;DHT22;22752;51.960;5.886;2023-06-04T11:35:55;23.10;63.70
36800;DHT22;22752;51.960;5.886;2023-06-04T11:38:20;23.10;65.10
36800;DHT22;22752;51.960;5.886;2023-06-04T11:40:59;23.10;64.10
36800;DHT22;22752;51.960;5.886;2023-06-04T11:43:26;23.20;64.20
36800;DHT22;22752;51.960;5.886;2023-06-04T11:45:52;23.20;65.80
36800;DHT22;22752;51.960;5.886;2023-06-04T11:48:18;23.20;63.70
36800;DHT22;22752;51.960;5.886;2023-06-04T11:50:46;23.20;65.80
36800;DHT22;22752;51.960;5.886;2023-06-04T11:53:11;23.30;65.70
36800;DHT22;22752;51.960;5.886;2023-06-04T11:55:39;23.30;65.30
36800;DHT22;22752;51.960;5.886;2023-06-04T11:58:05;23.30;65.30
36800;DHT22;22752;51.960;5.886;2023-06-04T12:00:31;23.20;64.70
36800;DHT22;22752;51.960;5.886;2023-06-04T12:02:57;23.30;65.10
36800;DHT22;22752;51.960;5.886;2023-06-04T12:05:28;23.40;65.10
36800;DHT22;22752;51.960;5.886;2023-06-04T12:08:07;23.50;64.90
36800;DHT22;22752;51.960;5.886;2023-06-04T12:10:42;23.70;65.00
36800;DHT22;22752;51.960;5.886;2023-06-04T12:13:09;23.70;65.10
36800;DHT22;22752;51.960;5.886;2023-06-04T12:15:35;23.80;65.60
36800;DHT22;22752;51.960;5.886;2023-06-04T12:18:00;23.80;63.80
36800;DHT22;22752;51.960;5.886;2023-06-04T12:20:37;23.70;64.40
36800;DHT22;22752;51.960;5.886;2023-06-04T12:23:05;23.90;65.40
36800;DHT22;22752;51.960;5.886;2023-06-04T12:25:32;23.90;65.00
36800;DHT22;22752;51.960;5.886;2023-06-04T12:27:58;24.00;66.20
36800;DHT22;22752;51.960;5.886;2023-06-04T12:30:35;24.10;64.70
36800;DHT22;22752;51.960;5.886;2023-06-04T12:33:01;24.10;64.50
36800;DHT22;22752;51.960;5.886;2023-06-04T12:35:27;23.90;65.00
36800;DHT22;22752;51.960;5.886;2023-06-04T12:37:53;23.80;64.90
36800;DHT22;22752;51.960;5.886;2023-06-04T12:40:18;23.80;64.90
36800;DHT22;22752;51.960;5.886;2023-06-04T12:42:44;23.80;64.90
36800;DHT22;22752;51.960;5.886;2023-06-04T12:45:10;23.70;65.00
36800;DHT22;22752;51.960;5.886;2023-06-04T12:47:37;23.70;64.60
36800;DHT22;22752;51.960;5.886;2023-06-04T12:50:03;23.70;63.70
36800;DHT22;22752;51.960;5.886;2023-06-04T12:52:29;23.60;64.10
36800;DHT22;22752;51.960;5.886;2023-06-04T12:54:54;23.50;64.30
36800;DHT22;22752;51.960;5.886;2023-06-04T12:57:20;23.50;65.70
36800;DHT22;22752;51.960;5.886;2023-06-04T12:59:46;23.70;65.50
36800;DHT22;22752;51.960;5.886;2023-06-04T13:02:11;23.70;65.50
36800;DHT22;22752;51.960;5.886;2023-06-04T13:04:37;23.80;65.50
36800;DHT22;22752;51.960;5.886;2023-06-04T13:07:02;23.80;64.60
36800;DHT22;22752;51.960;5.886;2023-06-04T13:09:28;23.70;64.60
36800;DHT22;22752;51.960;5.886;2023-06-04T13:11:54;23.70;65.10
36800;DHT22;22752;51.960;5.886;2023-06-04T13:14:19;23.70;64.90
36800;DHT22;22752;51.960;5.886;2023-06-04T13:16:45;23.70;66.30
36800;DHT22;22752;51.960;5.886;2023-06-04T13:19:14;23.80;64.10
36800;DHT22;22752;51.960;5.886;2023-06-04T13:21:39;23.70;64.30
36800;DHT22;22752;51.960;5.886;2023-06-04T13:24:05;23.60;65.40
36800;DHT22;22752;51.960;5.886;2023-06-04T13:26:32;23.70;66.70
36800;DHT22;22752;51.960;5.886;2023-06-04T13:28:58;23.70;66.80
36800;DHT22;22752;51.960;5.886;2023-06-04T13:31:24;23.80;65.30
36800;DHT22;22752;51.960;5.886;2023-06-04T13:33:49;23.80;65.40
36800;DHT22;22752;51.960;5.886;2023-06-04T13:36:15;23.90;65.60
36800;DHT22;22752;51.960;5.886;2023-06-04T13:38:41;23.80;65.00
36800;DHT22;22752;51.960;5.886;2023-06-04T13:41:08;23.80;65.00
36800;DHT22;22752;51.960;5.886;2023-06-04T13:43:34;23.80;66.10
36800;DHT22;22752;51.960;5.886;2023-06-04T13:45:59;23.80;66.10
36800;DHT22;22752;51.960;5.886;2023-06-04T13:48:25;23.80;65.20
36800;DHT22;22752;51.960;5.886;2023-06-04T13:50:51;23.80;65.40
36800;DHT22;22752;51.960;5.886;2023-06-04T13:53:16;24.00;65.50
36800;DHT22;22752;51.960;5.886;2023-06-04T13:55:42;24.00;66.30
36800;DHT22;22752;51.960;5.886;2023-06-04T13:58:07;24.10;65.90
36800;DHT22;22752;51.960;5.886;2023-06-04T14:00:33;24.10;66.20
36800;DHT22;22752;51.960;5.886;2023-06-04T14:02:59;24.00;64.20
36800;DHT22;22752;51.960;5.886;2023-06-04T14:05:25;23.90;65.10
36800;DHT22;22752;51.960;5.886;2023-06-04T14:07:53;23.90;64.70
36800;DHT22;22752;51.960;5.886;2023-06-04T14:10:19;23.90;64.50
36800;DHT22;22752;51.960;5.886;2023-06-04T14:12:45;23.90;64.70
36800;DHT22;22752;51.960;5.886;2023-06-04T14:15:11;23.90;65.40
36800;DHT22;22752;51.960;5.886;2023-06-04T14:17:37;23.90;66.30
36800;DHT22;22752;51.960;5.886;2023-06-04T14:20:04;24.00;65.70
36800;DHT22;22752;51.960;5.886;2023-06-04T14:22:37;24.00;65.30
36800;DHT22;22752;51.960;5.886;2023-06-04T14:25:04;24.00;64.80
36800;DHT22;22752;51.960;5.886;2023-06-04T14:27:30;24.00;65.50
36800;DHT22;22752;51.960;5.886;2023-06-04T14:29:55;24.10;66.20
36800;DHT22;22752;51.960;5.886;2023-06-04T14:32:21;24.10;65.10
36800;DHT22;22752;51.960;5.886;2023-06-04T14:34:47;24.00;64.80
36800;DHT22;22752;51.960;5.886;2023-06-04T14:37:13;24.00;65.60
36800;DHT22;22752;51.960;5.886;2023-06-04T14:39:38;24.00;65.20
36800;DHT22;22752;51.960;5.886;2023-06-04T14:42:04;23.80;64.70
36800;DHT22;22752;51.960;5.886;2023-06-04T14:44:30;23.80;64.70
36800;DHT22;22752;51.960;5.886;2023-06-04T14:46:56;23.70;64.40
36800;DHT22;22752;51.960;5.886;2023-06-04T14:49:22;23.70;65.30
36800;DHT22;22752;51.960;5.886;2023-06-04T14:51:48;23.70;65.80
36800;DHT22;22752;51.960;5.886;2023-06-04T14:54:13;23.70;64.10
36800;DHT22;22752;51.960;5.886;2023-06-04T14:56:39;23.60;64.30
36800;DHT22;22752;51.960;5.886;2023-06-04T14:59:05;23.50;64.60
36800;DHT22;22752;51.960;5.886;2023-06-04T15:01:37;23.50;64.90
36800;DHT22;22752;51.960;5.886;2023-06-04T15:04:04;23.40;66.50
36800;DHT22;22752;51.960;5.886;2023-06-04T15:06:29;23.50;66.30
36800;DHT22;22752;51.960;5.886;2023-06-04T15:08:55;23.50;66.30
36800;DHT22;22752;51.960;5.886;2023-06-04T15:11:21;23.50;66.10
36800;DHT22;22752;51.960;5.886;2023-06-04T15:13:46;23.50;65.70
36800;DHT22;22752;51.960;5.886;2023-06-04T15:16:12;23.40;65.50
36800;DHT22;22752;51.960;5.886;2023-06-04T15:18:38;23.40;66.80
36800;DHT22;22752;51.960;5.886;2023-06-04T15:21:03;23.40;65.60
36800;DHT22;22752;51.960;5.886;2023-06-04T15:23:29;23.40;65.20
36800;DHT22;22752;51.960;5.886;2023-06-04T15:25:55;23.40;66.60
36800;DHT22;22752;51.960;5.886;2023-06-04T15:28:20;23.40;65.90
36800;DHT22;22752;51.960;5.886;2023-06-04T15:30:46;23.40;66.10
36800;DHT22;22752;51.960;5.886;2023-06-04T15:33:12;23.40;66.30